sensor_id;sensor_type;location;lat;lon;timestamp;pressure;altitude;pressure_sealevel;temperature;humidity
22104;BME280;11218;48.886;9.426;2023-07-22T00:02:07;97931.81;;;15.67;77.59
22104;BME280;11218;48.886;9.426;2023-07-22T00:04:35;97920.25;;;15.57;78.25
22104;BME280;11218;48.886;9.426;2023-07-22T00:07:04;97928.94;;;15.54;78.46
22104;BME280;11218;48.886;9.426;2023-07-22T00:09:34;97925.47;;;15.48;78.63
22104;BME280;11218;48.886;9.426;2023-07-22T00:12:02;97918.16;;;15.43;78.53
22104;BME280;11218;48.886;9.426;2023-07-22T00:14:31;97922.25;;;15.41;78.90
22104;BME280;11218;48.886;9.426;2023-07-22T00:16:59;97920.41;;;15.36;79.11
22104;BME280;11218;48.886;9.426;2023-07-22T00:19:28;97922.28;;;15.36;79.24
22104;BME280;11218;48.886;9.426;2023-07-22T00:21:56;97935.38;;;15.29;79.32
22104;BME280;11218;48.886;9.426;2023-07-22T00:24:24;97920.75;;;15.25;78.91
22104;BME280;11218;48.886;9.426;2023-07-22T00:26:53;97924.09;;;15.11;79.37
22104;BME280;11218;48.886;9.426;2023-07-22T00:29:21;97922.78;;;15.04;80.70
22104;BME280;11218;48.886;9.426;2023-07-22T00:31:49;97920.38;;;15.02;80.91
22104;BME280;11218;48.886;9.426;2023-07-22T00:34:17;97913.84;;;15.03;80.04
22104;BME280;11218;48.886;9.426;2023-07-22T00:36:46;97911.44;;;15.02;80.80
22104;BME280;11218;48.886;9.426;2023-07-22T00:39:14;97913.84;;;15.03;80.73
22104;BME280;11218;48.886;9.426;2023-07-22T00:41:42;97920.38;;;15.02;80.60
22104;BME280;11218;48.886;9.426;2023-07-22T00:44:12;97923.38;;;14.96;80.98
22104;BME280;11218;48.886;9.426;2023-07-22T00:46:41;97912.53;;;14.96;80.89
22104;BME280;11218;48.886;9.426;2023-07-22T00:49:10;97912.06;;;14.89;80.83
22104;BME280;11218;48.886;9.426;2023-07-22T00:51:39;97907.97;;;14.91;81.03
22104;BME280;11218;48.886;9.426;2023-07-22T00:54:07;97910.41;;;14.93;80.95
22104;BME280;11218;48.886;9.426;2023-07-22T00:56:36;97909.84;;;14.96;80.62
22104;BME280;11218;48.886;9.426;2023-07-22T00:59:04;97900.63;;;14.97;81.17
22104;BME280;11218;48.886;9.426;2023-07-22T01:01:34;97897.31;;;15.05;80.96
22104;BME280;11218;48.886;9.426;2023-07-22T01:04:02;97896.22;;;15.06;80.27
22104;BME280;11218;48.886;9.426;2023-07-22T01:06:31;97899.50;;;15.03;80.43
22104;BME280;11218;48.886;9.426;2023-07-22T01:09:00;97892.47;;;14.97;79.99
22104;BME280;11218;48.886;9.426;2023-07-22T01:11:29;97896.81;;;14.98;80.19
22104;BME280;11218;48.886;9.426;2023-07-22T01:13:57;97896.81;;;14.98;80.41
22104;BME280;11218;48.886;9.426;2023-07-22T01:16:26;97904.94;;;14.98;80.37
22104;BME280;11218;48.886;9.426;2023-07-22T01:18:57;97898.47;;;14.94;80.63
22104;BME280;11218;48.886;9.426;2023-07-22T01:21:25;97896.56;;;14.94;80.37
22104;BME280;11218;48.886;9.426;2023-07-22T01:23:56;97899.81;;;14.96;79.90
22104;BME280;11218;48.886;9.426;2023-07-22T01:26:24;97892.47;;;14.97;80.63
22104;BME280;11218;48.886;9.426;2023-07-22T01:29:02;97891.38;;;14.98;80.44
22104;BME280;11218;48.886;9.426;2023-07-22T01:31:30;97891.91;;;15.00;80.33
22104;BME280;11218;48.886;9.426;2023-07-22T01:33:58;97877.81;;;15.03;80.20
22104;BME280;11218;48.886;9.426;2023-07-22T01:36:26;97883.75;;;15.05;79.99
22104;BME280;11218;48.886;9.426;2023-07-22T01:38:56;97883.50;;;15.01;79.82
22104;BME280;11218;48.886;9.426;2023-07-22T01:41:24;97885.66;;;15.04;79.68
22104;BME280;11218;48.886;9.426;2023-07-22T01:43:52;97886.72;;;15.08;79.70
22104;BME280;11218;48.886;9.426;2023-07-22T01:46:20;97883.16;;;15.13;78.98
22104;BME280;11218;48.886;9.426;2023-07-22T01:48:49;97889.91;;;15.16;79.30
22104;BME280;11218;48.886;9.426;2023-07-22T01:51:17;97889.72;;;15.02;80.25
22104;BME280;11218;48.886;9.426;2023-07-22T01:53:45;97885.34;;;15.11;79.55
22104;BME280;11218;48.886;9.426;2023-07-22T01:56:14;97885.81;;;15.18;79.04
22104;BME280;11218;48.886;9.426;2023-07-22T01:58:43;97882.50;;;15.26;78.71
22104;BME280;11218;48.886;9.426;2023-07-22T02:01:11;97888.69;;;15.32;78.42
22104;BME280;11218;48.886;9.426;2023-07-22T02:03:40;97888.38;;;15.38;78.06
22104;BME280;11218;48.886;9.426;2023-07-22T02:06:08;97881.31;;;15.37;77.97
22104;BME280;11218;48.886;9.426;2023-07-22T02:08:37;97892.13;;;15.42;77.00
22104;BME280;11218;48.886;9.426;2023-07-22T02:11:06;97898.66;;;15.41;77.29
22104;BME280;11218;48.886;9.426;2023-07-22T02:13:37;97898.41;;;15.38;77.45
22104;BME280;11218;48.886;9.426;2023-07-22T02:16:05;97891.38;;;15.37;77.53
22104;BME280;11218;48.886;9.426;2023-07-22T02:18:33;97894.88;;;15.37;77.36
22104;BME280;11218;48.886;9.426;2023-07-22T02:21:01;97891.69;;;15.30;77.73
22104;BME280;11218;48.886;9.426;2023-07-22T02:23:29;97905.78;;;15.32;77.50
22104;BME280;11218;48.886;9.426;2023-07-22T02:25:57;97896.31;;;15.30;77.52
22104;BME280;11218;48.886;9.426;2023-07-22T02:28:26;97897.34;;;15.34;76.94
22104;BME280;11218;48.886;9.426;2023-07-22T02:30:55;97904.66;;;15.38;76.29
22104;BME280;11218;48.886;9.426;2023-07-22T02:33:29;97908.22;;;15.34;77.55
22104;BME280;11218;48.886;9.426;2023-07-22T02:35:57;97895.47;;;15.34;77.28
22104;BME280;11218;48.886;9.426;2023-07-22T02:38:25;97907.63;;;15.37;76.44
22104;BME280;11218;48.886;9.426;2023-07-22T02:40:53;97903.84;;;15.38;76.67
22104;BME280;11218;48.886;9.426;2023-07-22T02:43:22;97911.16;;;15.37;76.92
22104;BME280;11218;48.886;9.426;2023-07-22T02:45:52;97903.06;;;15.32;76.70
22104;BME280;11218;48.886;9.426;2023-07-22T02:48:22;97907.41;;;15.33;77.05
22104;BME280;11218;48.886;9.426;2023-07-22T02:50:50;97914.44;;;15.34;77.15
22104;BME280;11218;48.886;9.426;2023-07-22T02:53:19;97913.63;;;15.34;76.92
22104;BME280;11218;48.886;9.426;2023-07-22T02:55:47;97912.25;;;15.36;75.89
22104;BME280;11218;48.886;9.426;2023-07-22T02:58:15;97911.72;;;15.34;76.16
22104;BME280;11218;48.886;9.426;2023-07-22T03:00:43;97898.44;;;15.33;76.65
22104;BME280;11218;48.886;9.426;2023-07-22T03:03:11;97902.25;;;15.32;76.47
22104;BME280;11218;48.886;9.426;2023-07-22T03:05:41;97901.44;;;15.31;76.48
22104;BME280;11218;48.886;9.426;2023-07-22T03:08:09;97903.34;;;15.31;76.10
22104;BME280;11218;48.886;9.426;2023-07-22T03:10:36;97895.53;;;15.24;76.78
22104;BME280;11218;48.886;9.426;2023-07-22T03:13:05;97897.78;;;15.12;76.97
22104;BME280;11218;48.886;9.426;2023-07-22T03:15:34;97893.78;;;15.04;77.88
22104;BME280;11218;48.886;9.426;2023-07-22T03:18:02;97901.94;;;14.99;77.80
22104;BME280;11218;48.886;9.426;2023-07-22T03:20:34;97899.53;;;14.98;78.18
22104;BME280;11218;48.886;9.426;2023-07-22T03:23:10;97891.66;;;14.96;78.34
22104;BME280;11218;48.886;9.426;2023-07-22T03:25:38;97886.00;;;14.93;78.46
22104;BME280;11218;48.886;9.426;2023-07-22T03:28:06;97878.97;;;14.92;78.52
22104;BME280;11218;48.886;9.426;2023-07-22T03:30:34;97883.03;;;14.89;78.98
22104;BME280;11218;48.886;9.426;2023-07-22T03:33:02;97889.03;;;14.86;79.32
22104;BME280;11218;48.886;9.426;2023-07-22T03:35:32;97896.88;;;14.88;79.37
22104;BME280;11218;48.886;9.426;2023-07-22T03:38:01;97896.31;;;14.91;79.01
22104;BME280;11218;48.886;9.426;2023-07-22T03:40:33;97886.28;;;14.91;77.94
22104;BME280;11218;48.886;9.426;2023-07-22T03:43:01;97897.69;;;14.88;78.66
22104;BME280;11218;48.886;9.426;2023-07-22T03:45:29;97902.06;;;14.84;78.35
22104;BME280;11218;48.886;9.426;2023-07-22T03:47:58;97900.50;;;14.78;79.09
22104;BME280;11218;48.886;9.426;2023-07-22T03:50:27;97898.09;;;14.71;79.33
22104;BME280;11218;48.886;9.426;2023-07-22T03:52:55;97894.31;;;14.67;79.37
22104;BME280;11218;48.886;9.426;2023-07-22T03:55:23;97897.03;;;14.67;79.24
22104;BME280;11218;48.886;9.426;2023-07-22T03:57:52;97898.38;;;14.70;79.48
22104;BME280;11218;48.886;9.426;2023-07-22T04:00:21;97898.94;;;14.67;79.59
22104;BME280;11218;48.886;9.426;2023-07-22T04:02:49;97908.41;;;14.64;79.83
22104;BME280;11218;48.886;9.426;2023-07-22T04:05:17;97907.34;;;14.65;79.41
22104;BME280;11218;48.886;9.426;2023-07-22T04:07:45;97906.81;;;14.58;79.58
22104;BME280;11218;48.886;9.426;2023-07-22T04:10:13;97912.25;;;14.53;80.34
22104;BME280;11218;48.886;9.426;2023-07-22T04:12:41;97908.22;;;14.51;80.01
22104;BME280;11218;48.886;9.426;2023-07-22T04:15:11;97913.91;;;14.49;80.45
22104;BME280;11218;48.886;9.426;2023-07-22T04:17:39;97913.06;;;14.54;80.91
22104;BME280;11218;48.886;9.426;2023-07-22T04:20:08;97903.03;;;14.59;80.55
22104;BME280;11218;48.886;9.426;2023-07-22T04:22:36;97902.19;;;14.64;80.50
22104;BME280;11218;48.886;9.426;2023-07-22T04:25:06;97899.75;;;14.67;80.10
22104;BME280;11218;48.886;9.426;2023-07-22T04:27:34;97906.78;;;14.68;80.65
22104;BME280;11218;48.886;9.426;2023-07-22T04:30:03;97910.25;;;14.74;80.19
22104;BME280;11218;48.886;9.426;2023-07-22T04:32:32;97906.47;;;14.75;80.15
22104;BME280;11218;48.886;9.426;2023-07-22T04:35:00;97903.22;;;14.73;80.71
22104;BME280;11218;48.886;9.426;2023-07-22T04:37:30;97904.03;;;14.73;80.75
22104;BME280;11218;48.886;9.426;2023-07-22T04:39:58;97889.97;;;14.71;80.37
22104;BME280;11218;48.886;9.426;2023-07-22T04:42:26;97895.38;;;14.71;80.59
22104;BME280;11218;48.886;9.426;2023-07-22T04:44:54;97907.56;;;14.74;79.94
22104;BME280;11218;48.886;9.426;2023-07-22T04:47:22;97902.34;;;14.83;79.73
22104;BME280;11218;48.886;9.426;2023-07-22T04:49:52;97902.63;;;14.81;79.97
22104;BME280;11218;48.886;9.426;2023-07-22T04:52:20;97893.34;;;14.87;79.95
22104;BME280;11218;48.886;9.426;2023-07-22T04:54:48;97896.28;;;14.96;79.77
22104;BME280;11218;48.886;9.426;2023-07-22T04:57:16;97896.53;;;14.99;79.77
22104;BME280;11218;48.886;9.426;2023-07-22T04:59:44;97899.50;;;15.03;79.95
22104;BME280;11218;48.886;9.426;2023-07-22T05:02:12;97908.59;;;15.17;78.41
22104;BME280;11218;48.886;9.426;2023-07-22T05:04:41;97900.78;;;15.10;79.16
22104;BME280;11218;48.886;9.426;2023-07-22T05:07:10;97907.84;;;15.11;79.35
22104;BME280;11218;48.886;9.426;2023-07-22T05:09:38;97902.94;;;15.13;79.03
22104;BME280;11218;48.886;9.426;2023-07-22T05:12:07;97906.47;;;15.14;78.82
22104;BME280;11218;48.886;9.426;2023-07-22T05:14:35;97905.06;;;15.22;78.88
22104;BME280;11218;48.886;9.426;2023-07-22T05:17:03;97907.16;;;15.30;78.05
22104;BME280;11218;48.886;9.426;2023-07-22T05:19:32;97906.06;;;15.31;78.61
22104;BME280;11218;48.886;9.426;2023-07-22T05:22:00;97918.50;;;15.37;78.30
22104;BME280;11218;48.886;9.426;2023-07-22T05:24:29;97917.63;;;15.41;78.12
22104;BME280;11218;48.886;9.426;2023-07-22T05:26:58;97922.22;;;15.46;78.20
22104;BME280;11218;48.886;9.426;2023-07-22T05:29:35;97923.28;;;15.50;77.90
22104;BME280;11218;48.886;9.426;2023-07-22T05:32:04;97928.13;;;15.53;78.28
22104;BME280;11218;48.886;9.426;2023-07-22T05:34:49;97933.81;;;15.57;78.19
22104;BME280;11218;48.886;9.426;2023-07-22T05:37:17;97931.31;;;15.60;78.23
22104;BME280;11218;48.886;9.426;2023-07-22T05:39:47;97927.22;;;15.63;77.96
22104;BME280;11218;48.886;9.426;2023-07-22T05:42:15;97926.09;;;15.69;77.60
22104;BME280;11218;48.886;9.426;2023-07-22T05:44:43;97933.38;;;15.73;78.09
22104;BME280;11218;48.886;9.426;2023-07-22T05:47:11;97932.53;;;15.78;78.21
22104;BME280;11218;48.886;9.426;2023-07-22T05:49:39;97935.47;;;15.82;78.31
22104;BME280;11218;48.886;9.426;2023-07-22T05:52:07;97933.81;;;15.86;78.04
22104;BME280;11218;48.886;9.426;2023-07-22T05:54:35;97941.44;;;15.84;78.75
22104;BME280;11218;48.886;9.426;2023-07-22T05:57:05;97943.84;;;15.85;78.66
22104;BME280;11218;48.886;9.426;2023-07-22T05:59:33;97937.84;;;15.88;78.68
22104;BME280;11218;48.886;9.426;2023-07-22T06:02:03;97938.91;;;15.92;78.61
22104;BME280;11218;48.886;9.426;2023-07-22T06:04:32;97943.19;;;15.98;78.61
22104;BME280;11218;48.886;9.426;2023-07-22T06:07:00;97945.28;;;16.06;78.38
22104;BME280;11218;48.886;9.426;2023-07-22T06:09:28;97946.28;;;16.16;78.04
22104;BME280;11218;48.886;9.426;2023-07-22T06:11:56;97950.56;;;16.22;77.66
22104;BME280;11218;48.886;9.426;2023-07-22T06:14:25;97962.75;;;16.24;77.24
22104;BME280;11218;48.886;9.426;2023-07-22T06:16:53;97954.25;;;16.31;77.09
22104;BME280;11218;48.886;9.426;2023-07-22T06:19:22;97956.88;;;16.36;76.83
22104;BME280;11218;48.886;9.426;2023-07-22T06:21:50;97966.88;;;16.40;77.01
22104;BME280;11218;48.886;9.426;2023-07-22T06:24:19;97970.06;;;16.48;76.88
22104;BME280;11218;48.886;9.426;2023-07-22T06:26:47;97968.09;;;16.53;77.08
22104;BME280;11218;48.886;9.426;2023-07-22T06:29:15;97972.38;;;16.59;77.54
22104;BME280;11218;48.886;9.426;2023-07-22T06:31:45;97963.63;;;16.62;77.60
22104;BME280;11218;48.886;9.426;2023-07-22T06:34:13;97969.63;;;16.64;77.56
22104;BME280;11218;48.886;9.426;2023-07-22T06:36:41;97963.31;;;16.69;76.81
22104;BME280;11218;48.886;9.426;2023-07-22T06:39:10;97969.28;;;16.71;76.92
22104;BME280;11218;48.886;9.426;2023-07-22T06:41:38;97963.25;;;16.74;77.30
22104;BME280;11218;48.886;9.426;2023-07-22T06:44:05;97966.72;;;16.80;77.49
22104;BME280;11218;48.886;9.426;2023-07-22T06:46:33;97964.97;;;16.89;77.35
22104;BME280;11218;48.886;9.426;2023-07-22T06:49:03;97963.50;;;16.96;76.95
22104;BME280;11218;48.886;9.426;2023-07-22T06:51:31;97959.63;;;17.02;76.81
22104;BME280;11218;48.886;9.426;2023-07-22T06:53:59;97963.25;;;17.12;76.28
22104;BME280;11218;48.886;9.426;2023-07-22T06:56:27;97963.19;;;17.17;76.11
22104;BME280;11218;48.886;9.426;2023-07-22T06:58:55;97962.53;;;17.25;76.00
22104;BME280;11218;48.886;9.426;2023-07-22T07:01:24;97963.19;;;17.35;75.80
22104;BME280;11218;48.886;9.426;2023-07-22T07:03:52;97961.72;;;17.43;75.17
22104;BME280;11218;48.886;9.426;2023-07-22T07:06:21;97961.56;;;17.53;75.21
22104;BME280;11218;48.886;9.426;2023-07-22T07:08:49;97967.66;;;17.64;74.56
22104;BME280;11218;48.886;9.426;2023-07-22T07:11:18;97967.44;;;17.79;73.88
22104;BME280;11218;48.886;9.426;2023-07-22T07:13:46;97977.81;;;17.91;73.95
22104;BME280;11218;48.886;9.426;2023-07-22T07:16:22;97973.22;;;18.05;73.04
22104;BME280;11218;48.886;9.426;2023-07-22T07:18:51;97981.31;;;18.24;72.10
22104;BME280;11218;48.886;9.426;2023-07-22T07:21:21;97976.59;;;18.43;71.20
22104;BME280;11218;48.886;9.426;2023-07-22T07:23:50;97978.13;;;18.63;69.29
22104;BME280;11218;48.886;9.426;2023-07-22T07:26:19;97979.13;;;18.81;68.24
22104;BME280;11218;48.886;9.426;2023-07-22T07:28:47;97981.53;;;18.96;67.32
22104;BME280;11218;48.886;9.426;2023-07-22T07:31:17;97979.38;;;19.20;66.69
22104;BME280;11218;48.886;9.426;2023-07-22T07:33:45;97979.19;;;19.39;64.56
22104;BME280;11218;48.886;9.426;2023-07-22T07:36:13;97975.19;;;19.59;63.97
22104;BME280;11218;48.886;9.426;2023-07-22T07:38:43;97979.84;;;19.81;63.28
22104;BME280;11218;48.886;9.426;2023-07-22T07:41:11;97973.72;;;20.06;62.98
22104;BME280;11218;48.886;9.426;2023-07-22T07:43:40;97978.66;;;20.26;62.54
22104;BME280;11218;48.886;9.426;2023-07-22T07:46:16;97984.75;;;20.54;61.83
22104;BME280;11218;48.886;9.426;2023-07-22T07:48:46;97977.78;;;20.79;60.94
22104;BME280;11218;48.886;9.426;2023-07-22T07:51:15;97972.81;;;20.98;59.64
22104;BME280;11218;48.886;9.426;2023-07-22T07:53:45;97982.66;;;21.17;59.12
22104;BME280;11218;48.886;9.426;2023-07-22T07:56:15;97974.34;;;21.39;58.53
22104;BME280;11218;48.886;9.426;2023-07-22T07:58:44;97961.75;;;21.55;57.58
22104;BME280;11218;48.886;9.426;2023-07-22T08:01:13;97970.91;;;21.77;56.97
22104;BME280;11218;48.886;9.426;2023-07-22T08:03:42;97968.31;;;21.89;55.76
22104;BME280;11218;48.886;9.426;2023-07-22T08:06:11;97971.72;;;22.03;54.43
22104;BME280;11218;48.886;9.426;2023-07-22T08:08:39;97963.28;;;22.17;54.07
22104;BME280;11218;48.886;9.426;2023-07-22T08:11:10;97974.66;;;22.36;53.52
22104;BME280;11218;48.886;9.426;2023-07-22T08:13:41;97972.31;;;22.55;52.80
22104;BME280;11218;48.886;9.426;2023-07-22T08:16:11;97970.66;;;22.63;50.88
22104;BME280;11218;48.886;9.426;2023-07-22T08:18:39;97964.66;;;22.70;50.99
22104;BME280;11218;48.886;9.426;2023-07-22T08:21:09;97968.81;;;22.84;50.86
22104;BME280;11218;48.886;9.426;2023-07-22T08:23:37;97979.09;;;22.96;50.81
22104;BME280;11218;48.886;9.426;2023-07-22T08:26:05;97962.81;;;23.12;50.50
22104;BME280;11218;48.886;9.426;2023-07-22T08:28:35;97967.91;;;23.22;49.16
22104;BME280;11218;48.886;9.426;2023-07-22T08:31:03;97971.94;;;23.24;49.00
22104;BME280;11218;48.886;9.426;2023-07-22T08:33:31;97976.38;;;23.38;50.07
22104;BME280;11218;48.886;9.426;2023-07-22T08:36:02;97971.28;;;23.48;49.60
22104;BME280;11218;48.886;9.426;2023-07-22T08:38:30;97965.31;;;23.67;48.59
22104;BME280;11218;48.886;9.426;2023-07-22T08:41:00;97956.28;;;23.79;48.95
22104;BME280;11218;48.886;9.426;2023-07-22T08:43:29;97958.03;;;23.83;47.60
22104;BME280;11218;48.886;9.426;2023-07-22T08:46:00;97954.81;;;23.81;47.38
22104;BME280;11218;48.886;9.426;2023-07-22T08:48:30;97951.25;;;23.81;47.62
22104;BME280;11218;48.886;9.426;2023-07-22T08:51:03;97947.97;;;23.87;46.34
22104;BME280;11218;48.886;9.426;2023-07-22T08:53:32;97944.06;;;23.76;47.38
22104;BME280;11218;48.886;9.426;2023-07-22T08:56:01;97952.19;;;23.85;46.85
22104;BME280;11218;48.886;9.426;2023-07-22T08:58:29;97943.22;;;24.09;47.16
22104;BME280;11218;48.886;9.426;2023-07-22T09:01:00;97951.00;;;24.07;45.60
22104;BME280;11218;48.886;9.426;2023-07-22T09:03:29;97953.28;;;24.05;44.16
22104;BME280;11218;48.886;9.426;2023-07-22T09:05:58;97951.72;;;23.83;45.41
22104;BME280;11218;48.886;9.426;2023-07-22T09:08:27;97946.44;;;23.78;45.84
22104;BME280;11218;48.886;9.426;2023-07-22T09:10:55;97946.41;;;23.66;46.14
22104;BME280;11218;48.886;9.426;2023-07-22T09:13:26;97949.91;;;23.54;44.46
22104;BME280;11218;48.886;9.426;2023-07-22T09:15:56;97945.81;;;23.18;44.92
22104;BME280;11218;48.886;9.426;2023-07-22T09:18:26;97951.69;;;23.08;45.92
22104;BME280;11218;48.886;9.426;2023-07-22T09:20:55;97947.66;;;23.06;47.04
22104;BME280;11218;48.886;9.426;2023-07-22T09:23:32;97934.47;;;23.20;46.26
22104;BME280;11218;48.886;9.426;2023-07-22T09:26:08;97940.16;;;23.15;45.50
22104;BME280;11218;48.886;9.426;2023-07-22T09:28:53;97940.38;;;22.89;46.21
22104;BME280;11218;48.886;9.426;2023-07-22T09:31:23;97931.25;;;22.68;46.97
22104;BME280;11218;48.886;9.426;2023-07-22T09:33:53;97931.97;;;22.56;46.64
22104;BME280;11218;48.886;9.426;2023-07-22T09:36:22;97938.81;;;22.41;47.45
22104;BME280;11218;48.886;9.426;2023-07-22T09:38:59;97937.13;;;22.28;46.90
22104;BME280;11218;48.886;9.426;2023-07-22T09:41:29;97939.25;;;22.14;47.94
22104;BME280;11218;48.886;9.426;2023-07-22T09:44:02;97939.41;;;22.17;48.38
22104;BME280;11218;48.886;9.426;2023-07-22T09:46:31;97942.47;;;22.16;49.02
22104;BME280;11218;48.886;9.426;2023-07-22T09:49:04;97932.47;;;22.20;49.29
22104;BME280;11218;48.886;9.426;2023-07-22T09:51:34;97935.13;;;22.37;49.24
22104;BME280;11218;48.886;9.426;2023-07-22T09:54:19;97941.25;;;22.72;47.95
22104;BME280;11218;48.886;9.426;2023-07-22T09:56:49;97937.97;;;22.87;48.23
22104;BME280;11218;48.886;9.426;2023-07-22T09:59:18;97933.59;;;23.07;48.20
22104;BME280;11218;48.886;9.426;2023-07-22T10:01:46;97946.94;;;23.17;47.81
22104;BME280;11218;48.886;9.426;2023-07-22T10:04:18;97937.63;;;23.31;46.02
22104;BME280;11218;48.886;9.426;2023-07-22T10:06:50;97934.47;;;23.41;47.30
22104;BME280;11218;48.886;9.426;2023-07-22T10:09:20;97923.53;;;23.53;46.11
22104;BME280;11218;48.886;9.426;2023-07-22T10:11:49;97924.50;;;23.57;45.11
22104;BME280;11218;48.886;9.426;2023-07-22T10:14:18;97916.59;;;23.55;46.14
22104;BME280;11218;48.886;9.426;2023-07-22T10:16:47;97919.25;;;23.64;44.96
22104;BME280;11218;48.886;9.426;2023-07-22T10:19:16;97922.16;;;23.80;44.00
22104;BME280;11218;48.886;9.426;2023-07-22T10:21:45;97923.53;;;23.74;43.32
22104;BME280;11218;48.886;9.426;2023-07-22T10:24:13;97920.47;;;23.87;43.26
22104;BME280;11218;48.886;9.426;2023-07-22T10:26:42;97922.78;;;23.98;42.77
22104;BME280;11218;48.886;9.426;2023-07-22T10:29:14;97908.59;;;24.20;42.71
22104;BME280;11218;48.886;9.426;2023-07-22T10:31:42;97913.72;;;24.42;43.08
22104;BME280;11218;48.886;9.426;2023-07-22T10:34:10;97908.97;;;24.67;42.41
22104;BME280;11218;48.886;9.426;2023-07-22T10:36:40;97904.03;;;24.85;42.26
22104;BME280;11218;48.886;9.426;2023-07-22T10:39:08;97899.91;;;25.03;41.76
22104;BME280;11218;48.886;9.426;2023-07-22T10:41:38;97915.03;;;24.85;41.74
22104;BME280;11218;48.886;9.426;2023-07-22T10:44:09;97901.88;;;24.66;41.66
22104;BME280;11218;48.886;9.426;2023-07-22T10:46:39;97907.59;;;24.61;41.76
22104;BME280;11218;48.886;9.426;2023-07-22T10:49:11;97901.75;;;24.63;42.59
22104;BME280;11218;48.886;9.426;2023-07-22T10:51:45;97895.66;;;24.69;41.86
22104;BME280;11218;48.886;9.426;2023-07-22T10:54:15;97904.72;;;24.57;41.93
22104;BME280;11218;48.886;9.426;2023-07-22T10:57:04;97906.38;;;24.46;42.57
22104;BME280;11218;48.886;9.426;2023-07-22T10:59:55;97888.56;;;24.56;42.32
22104;BME280;11218;48.886;9.426;2023-07-22T11:02:24;97899.09;;;24.78;41.82
22104;BME280;11218;48.886;9.426;2023-07-22T11:04:56;97894.94;;;25.09;41.90
22104;BME280;11218;48.886;9.426;2023-07-22T11:07:34;97890.03;;;25.30;40.69
22104;BME280;11218;48.886;9.426;2023-07-22T11:10:14;97888.72;;;25.40;40.25
22104;BME280;11218;48.886;9.426;2023-07-22T11:12:44;97882.38;;;25.51;39.70
22104;BME280;11218;48.886;9.426;2023-07-22T11:15:29;97890.50;;;25.60;38.81
22104;BME280;11218;48.886;9.426;2023-07-22T11:17:57;97882.03;;;25.53;38.75
22104;BME280;11218;48.886;9.426;2023-07-22T11:20:31;97881.72;;;25.42;39.41
22104;BME280;11218;48.886;9.426;2023-07-22T11:23:01;97879.06;;;25.46;39.04
22104;BME280;11218;48.886;9.426;2023-07-22T11:25:33;97877.94;;;25.63;38.20
22104;BME280;11218;48.886;9.426;2023-07-22T11:28:02;97866.28;;;25.53;38.17
22104;BME280;11218;48.886;9.426;2023-07-22T11:30:34;97866.97;;;25.78;38.44
22104;BME280;11218;48.886;9.426;2023-07-22T11:33:02;97864.31;;;25.82;38.68
22104;BME280;11218;48.886;9.426;2023-07-22T11:35:30;97863.41;;;25.78;36.35
22104;BME280;11218;48.886;9.426;2023-07-22T11:38:03;97856.91;;;25.42;36.41
22104;BME280;11218;48.886;9.426;2023-07-22T11:40:34;97852.09;;;25.39;38.50
22104;BME280;11218;48.886;9.426;2023-07-22T11:43:02;97852.44;;;25.38;37.84
22104;BME280;11218;48.886;9.426;2023-07-22T11:45:31;97856.00;;;25.38;37.02
22104;BME280;11218;48.886;9.426;2023-07-22T11:48:00;97853.31;;;25.26;37.52
22104;BME280;11218;48.886;9.426;2023-07-22T11:50:32;97851.78;;;25.29;37.69
22104;BME280;11218;48.886;9.426;2023-07-22T11:53:01;97845.22;;;25.33;37.59
22104;BME280;11218;48.886;9.426;2023-07-22T11:55:34;97848.78;;;25.34;38.00
22104;BME280;11218;48.886;9.426;2023-07-22T11:58:06;97853.38;;;25.58;37.17
22104;BME280;11218;48.886;9.426;2023-07-22T12:00:35;97848.09;;;25.65;37.08
22104;BME280;11218;48.886;9.426;2023-07-22T12:03:08;97841.19;;;25.86;35.89
22104;BME280;11218;48.886;9.426;2023-07-22T12:05:36;97837.81;;;25.93;35.50
22104;BME280;11218;48.886;9.426;2023-07-22T12:08:05;97839.31;;;26.06;35.09
22104;BME280;11218;48.886;9.426;2023-07-22T12:10:33;97835.47;;;26.27;35.79
22104;BME280;11218;48.886;9.426;2023-07-22T12:13:01;97825.47;;;26.54;35.20
22104;BME280;11218;48.886;9.426;2023-07-22T12:15:30;97830.00;;;26.62;34.39
22104;BME280;11218;48.886;9.426;2023-07-22T12:17:59;97829.44;;;26.72;34.24
22104;BME280;11218;48.886;9.426;2023-07-22T12:20:31;97818.25;;;26.84;33.34
22104;BME280;11218;48.886;9.426;2023-07-22T12:22:59;97818.53;;;26.79;33.31
22104;BME280;11218;48.886;9.426;2023-07-22T12:25:31;97817.94;;;26.89;33.42
22104;BME280;11218;48.886;9.426;2023-07-22T12:27:59;97816.97;;;26.97;33.50
22104;BME280;11218;48.886;9.426;2023-07-22T12:30:28;97809.88;;;26.80;33.90
22104;BME280;11218;48.886;9.426;2023-07-22T12:32:56;97804.44;;;26.65;33.11
22104;BME280;11218;48.886;9.426;2023-07-22T12:35:24;97803.19;;;26.62;33.50
22104;BME280;11218;48.886;9.426;2023-07-22T12:37:57;97803.75;;;26.52;33.81
22104;BME280;11218;48.886;9.426;2023-07-22T12:40:25;97793.69;;;26.28;34.13
22104;BME280;11218;48.886;9.426;2023-07-22T12:42:53;97794.50;;;26.29;34.03
22104;BME280;11218;48.886;9.426;2023-07-22T12:45:21;97793.97;;;26.23;34.84
22104;BME280;11218;48.886;9.426;2023-07-22T12:47:49;97792.38;;;26.06;35.00
22104;BME280;11218;48.886;9.426;2023-07-22T12:50:17;97797.19;;;26.09;34.86
22104;BME280;11218;48.886;9.426;2023-07-22T12:52:45;97794.03;;;25.92;35.14
22104;BME280;11218;48.886;9.426;2023-07-22T12:55:15;97791.09;;;25.84;35.58
22104;BME280;11218;48.886;9.426;2023-07-22T12:57:43;97787.19;;;25.85;35.08
22104;BME280;11218;48.886;9.426;2023-07-22T13:00:12;97781.94;;;25.80;35.24
22104;BME280;11218;48.886;9.426;2023-07-22T13:02:40;97782.53;;;25.74;35.23
22104;BME280;11218;48.886;9.426;2023-07-22T13:05:09;97783.41;;;25.62;35.48
22104;BME280;11218;48.886;9.426;2023-07-22T13:07:38;97789.78;;;25.50;35.85
22104;BME280;11218;48.886;9.426;2023-07-22T13:10:06;97780.19;;;25.60;35.90
22104;BME280;11218;48.886;9.426;2023-07-22T13:12:39;97778.09;;;25.85;36.03